ENY3646 KMIA-MYEM
Flight info
| Callsign | ENY3646 |
|---|---|
| Flight time | 0h 46m |
| Altitude | 21000 |
| Route | KLADA2 RAJAY DCT |
| Aircraft | E75L/M-RNAV/L |
Departure
| Time | 2026-04-25 23:16 |
|---|---|
| Airport | Miami International Airport (KMIA) |
Arrival
| Time | 2026-04-26 00:03 |
|---|---|
| Airport | Governor's Harbour Airport (MYEM) |
| Time | Latitude | Longitude | Altitude | Speed | Heading |
|---|---|---|---|---|---|
| 2026-04-25 23:07 | 25.79643 | -80.28632 | 12 ft | 0 kts | 265° |
| 2026-04-25 23:10 | 25.79643 | -80.28633 | 12 ft | 0 kts | 265° |
| 2026-04-25 23:11 | 25.79643 | -80.28694 | 11 ft | 12 kts | 268° |
| 2026-04-25 23:11 | 25.79745 | -80.28813 | 11 ft | 17 kts | 358° |
| 2026-04-25 23:11 | 25.79946 | -80.28822 | 12 ft | 18 kts | 359° |
| 2026-04-25 23:11 | 25.80006 | -80.29015 | 12 ft | 18 kts | 264° |
| 2026-04-25 23:12 | 25.79999 | -80.29208 | 12 ft | 19 kts | 268° |
| 2026-04-25 23:12 | 25.79989 | -80.29447 | 11 ft | 20 kts | 266° |
| 2026-04-25 23:12 | 25.79979 | -80.29686 | 12 ft | 7 kts | 269° |
| 2026-04-25 23:12 | 25.79983 | -80.29723 | 12 ft | 1 kts | 287° |
| 2026-04-25 23:13 | 25.79984 | -80.29725 | 12 ft | 0 kts | 287° |
| 2026-04-25 23:14 | 25.79993 | -80.29745 | 12 ft | 7 kts | 312° |
| 2026-04-25 23:15 | 25.80055 | -80.29756 | 11 ft | 3 kts | 18° |
| 2026-04-25 23:15 | 25.80076 | -80.29736 | 12 ft | 5 kts | 57° |
| 2026-04-25 23:15 | 25.80089 | -80.29688 | 12 ft | 0 kts | 87° |
| 2026-04-25 23:15 | 25.80092 | -80.29639 | 11 ft | 32 kts | 88° |
| 2026-04-25 23:16 | 25.80115 | -80.29095 | 12 ft | 105 kts | 86° |
| 2026-04-25 23:16 | 25.80166 | -80.28060 | 37 ft | 157 kts | 85° |
| 2026-04-25 23:16 | 25.80323 | -80.26840 | 466 ft | 173 kts | 79° |
| 2026-04-25 23:16 | 25.80388 | -80.25459 | 745 ft | 203 kts | 108° |
| 2026-04-25 23:17 | 25.79724 | -80.24331 | 1179 ft | 220 kts | 130° |
| 2026-04-25 23:17 | 25.78770 | -80.22830 | 2244 ft | 214 kts | 119° |
| 2026-04-25 23:17 | 25.78162 | -80.21522 | 2942 ft | 216 kts | 114° |
| 2026-04-25 23:17 | 25.77520 | -80.19817 | 3513 ft | 232 kts | 110° |
| 2026-04-25 23:18 | 25.76945 | -80.18133 | 4094 ft | 244 kts | 114° |
| 2026-04-25 23:18 | 25.76073 | -80.16419 | 4481 ft | 266 kts | 119° |
| 2026-04-25 23:18 | 25.75165 | -80.14656 | 5138 ft | 274 kts | 118° |
| 2026-04-25 23:18 | 25.74233 | -80.12807 | 5861 ft | 280 kts | 118° |
| 2026-04-25 23:19 | 25.73318 | -80.10865 | 6579 ft | 284 kts | 111° |
| 2026-04-25 23:19 | 25.72620 | -80.08795 | 7323 ft | 287 kts | 109° |
| 2026-04-25 23:19 | 25.71912 | -80.06657 | 8059 ft | 291 kts | 109° |
| 2026-04-25 23:19 | 25.71209 | -80.04534 | 8766 ft | 294 kts | 109° |
| 2026-04-25 23:20 | 25.70500 | -80.02395 | 9445 ft | 297 kts | 109° |
| 2026-04-25 23:20 | 25.69781 | -80.00226 | 10114 ft | 302 kts | 109° |
| 2026-04-25 23:20 | 25.69045 | -79.98005 | 10617 ft | 310 kts | 109° |
| 2026-04-25 23:20 | 25.68286 | -79.95717 | 11150 ft | 319 kts | 109° |
| 2026-04-25 23:21 | 25.67497 | -79.93338 | 11612 ft | 329 kts | 109° |
| 2026-04-25 23:21 | 25.66681 | -79.90879 | 12075 ft | 337 kts | 108° |
| 2026-04-25 23:21 | 25.65871 | -79.88439 | 12578 ft | 344 kts | 108° |
| 2026-04-25 23:21 | 25.65036 | -79.85929 | 13167 ft | 347 kts | 108° |
| 2026-04-25 23:22 | 25.64197 | -79.83415 | 13734 ft | 350 kts | 108° |
| 2026-04-25 23:22 | 25.63352 | -79.80880 | 14248 ft | 355 kts | 108° |
| 2026-04-25 23:22 | 25.62503 | -79.78331 | 14812 ft | 357 kts | 108° |
| 2026-04-25 23:23 | 25.60734 | -79.73029 | 15883 ft | 365 kts | 109° |
| 2026-04-25 23:23 | 25.59844 | -79.70364 | 16399 ft | 368 kts | 108° |
| 2026-04-25 23:23 | 25.59108 | -79.67658 | 16900 ft | 371 kts | 104° |
| 2026-04-25 23:23 | 25.58399 | -79.64887 | 17415 ft | 374 kts | 104° |
| 2026-04-25 23:24 | 25.57684 | -79.62112 | 17887 ft | 378 kts | 105° |
| 2026-04-25 23:24 | 25.56963 | -79.59323 | 18433 ft | 379 kts | 104° |
| 2026-04-25 23:24 | 25.56234 | -79.56508 | 18896 ft | 377 kts | 104° |
| 2026-04-25 23:24 | 25.55497 | -79.53661 | 18972 ft | 390 kts | 104° |
| 2026-04-25 23:25 | 25.54724 | -79.50676 | 18998 ft | 404 kts | 104° |
| 2026-04-25 23:25 | 25.53937 | -79.47649 | 18993 ft | 410 kts | 105° |
| 2026-04-25 23:25 | 25.53152 | -79.44629 | 18993 ft | 408 kts | 104° |
| 2026-04-25 23:25 | 25.52636 | -79.42645 | 18992 ft | 408 kts | 105° |
| 2026-04-25 23:26 | 25.51586 | -79.38618 | 18994 ft | 407 kts | 104° |
| 2026-04-25 23:26 | 25.50795 | -79.35580 | 18996 ft | 409 kts | 104° |
| 2026-04-25 23:26 | 25.50012 | -79.32574 | 18981 ft | 407 kts | 105° |
| 2026-04-25 23:26 | 25.49219 | -79.29536 | 18933 ft | 406 kts | 105° |
| 2026-04-25 23:27 | 25.48436 | -79.26538 | 18933 ft | 406 kts | 105° |
| 2026-04-25 23:27 | 25.47640 | -79.23492 | 18934 ft | 407 kts | 105° |
| 2026-04-25 23:27 | 25.46858 | -79.20508 | 18932 ft | 407 kts | 105° |
| 2026-04-25 23:27 | 25.46097 | -79.17602 | 18929 ft | 408 kts | 105° |
| 2026-04-25 23:28 | 25.45310 | -79.14602 | 18926 ft | 407 kts | 105° |
| 2026-04-25 23:28 | 25.44511 | -79.11562 | 18925 ft | 408 kts | 105° |
| 2026-04-25 23:28 | 25.43915 | -79.09296 | 18926 ft | 407 kts | 105° |
| 2026-04-25 23:28 | 25.43032 | -79.05943 | 18932 ft | 408 kts | 105° |
| 2026-04-25 23:29 | 25.42239 | -79.02932 | 18927 ft | 406 kts | 105° |
| 2026-04-25 23:29 | 25.41652 | -79.00703 | 18925 ft | 407 kts | 105° |
| 2026-04-25 23:29 | 25.40723 | -78.97180 | 18923 ft | 407 kts | 105° |
| 2026-04-25 23:29 | 25.39944 | -78.94228 | 18924 ft | 406 kts | 105° |
| 2026-04-25 23:30 | 25.39164 | -78.91276 | 18926 ft | 408 kts | 105° |
| 2026-04-25 23:30 | 25.38357 | -78.88223 | 18927 ft | 407 kts | 105° |
| 2026-04-25 23:30 | 25.37569 | -78.85246 | 18929 ft | 408 kts | 105° |
| 2026-04-25 23:30 | 25.36752 | -78.82156 | 18926 ft | 407 kts | 105° |
| 2026-04-25 23:31 | 25.35947 | -78.79116 | 18929 ft | 405 kts | 105° |
| 2026-04-25 23:31 | 25.35175 | -78.76208 | 18928 ft | 406 kts | 105° |
| 2026-04-25 23:31 | 25.34362 | -78.73148 | 18930 ft | 406 kts | 105° |
| 2026-04-25 23:31 | 25.33558 | -78.70121 | 18929 ft | 405 kts | 105° |
| 2026-04-25 23:32 | 25.32750 | -78.67086 | 18931 ft | 407 kts | 105° |
| 2026-04-25 23:32 | 25.31949 | -78.64078 | 18931 ft | 408 kts | 105° |
| 2026-04-25 23:32 | 25.31146 | -78.61068 | 18930 ft | 406 kts | 105° |
| 2026-04-25 23:32 | 25.30344 | -78.58057 | 18931 ft | 406 kts | 105° |
| 2026-04-25 23:33 | 25.29524 | -78.54985 | 18929 ft | 405 kts | 105° |
| 2026-04-25 23:33 | 25.28716 | -78.51965 | 18931 ft | 407 kts | 105° |
| 2026-04-25 23:33 | 25.27899 | -78.48910 | 18932 ft | 406 kts | 105° |
| 2026-04-25 23:33 | 25.27126 | -78.45905 | 18926 ft | 407 kts | 100° |
| 2026-04-25 23:34 | 25.26806 | -78.42877 | 18925 ft | 386 kts | 92° |
| 2026-04-25 23:34 | 25.26596 | -78.40040 | 18906 ft | 363 kts | 93° |
| 2026-04-25 23:34 | 25.26394 | -78.37347 | 18899 ft | 341 kts | 92° |
| 2026-04-25 23:34 | 25.26200 | -78.34799 | 18898 ft | 321 kts | 93° |
| 2026-04-25 23:35 | 25.26018 | -78.32412 | 18894 ft | 302 kts | 93° |
| 2026-04-25 23:35 | 25.25845 | -78.30138 | 18909 ft | 294 kts | 93° |
| 2026-04-25 23:35 | 25.25672 | -78.27874 | 18929 ft | 299 kts | 93° |
| 2026-04-25 23:35 | 25.25494 | -78.25551 | 18931 ft | 303 kts | 93° |
| 2026-04-25 23:36 | 25.25318 | -78.23270 | 18928 ft | 303 kts | 93° |
| 2026-04-25 23:36 | 25.25199 | -78.21729 | 18927 ft | 302 kts | 93° |
| 2026-04-25 23:36 | 25.24960 | -78.18626 | 18925 ft | 302 kts | 93° |
| 2026-04-25 23:36 | 25.24779 | -78.16305 | 18926 ft | 303 kts | 92° |
| 2026-04-25 23:37 | 25.24597 | -78.13953 | 18926 ft | 303 kts | 93° |
| 2026-04-25 23:37 | 25.24414 | -78.11603 | 18927 ft | 302 kts | 93° |
| 2026-04-25 23:37 | 25.24233 | -78.09283 | 18733 ft | 297 kts | 93° |
| 2026-04-25 23:37 | 25.24051 | -78.06943 | 18221 ft | 299 kts | 92° |
| 2026-04-25 23:38 | 25.23869 | -78.04625 | 17817 ft | 296 kts | 92° |
| 2026-04-25 23:38 | 25.23688 | -78.02303 | 17374 ft | 295 kts | 92° |
| 2026-04-25 23:38 | 25.23511 | -78.00034 | 16964 ft | 293 kts | 92° |
| 2026-04-25 23:38 | 25.23333 | -77.97775 | 16553 ft | 291 kts | 93° |
| 2026-04-25 23:39 | 25.23156 | -77.95557 | 16127 ft | 291 kts | 93° |
| 2026-04-25 23:39 | 25.22977 | -77.93311 | 15732 ft | 289 kts | 93° |
| 2026-04-25 23:39 | 25.22802 | -77.91107 | 15345 ft | 287 kts | 93° |
| 2026-04-25 23:39 | 25.22628 | -77.88922 | 14933 ft | 286 kts | 93° |
| 2026-04-25 23:40 | 25.22455 | -77.86744 | 14539 ft | 285 kts | 93° |
| 2026-04-25 23:40 | 25.22283 | -77.84580 | 14166 ft | 283 kts | 93° |
| 2026-04-25 23:40 | 25.22111 | -77.82428 | 13749 ft | 283 kts | 93° |
| 2026-04-25 23:40 | 25.21941 | -77.80302 | 13402 ft | 280 kts | 93° |
| 2026-04-25 23:41 | 25.21768 | -77.78141 | 13017 ft | 280 kts | 94° |
| 2026-04-25 23:41 | 25.21599 | -77.76031 | 12947 ft | 279 kts | 93° |
| 2026-04-25 23:41 | 25.21427 | -77.73891 | 12932 ft | 278 kts | 93° |
| 2026-04-25 23:41 | 25.21256 | -77.71771 | 12933 ft | 278 kts | 93° |
| 2026-04-25 23:42 | 25.21085 | -77.69643 | 12931 ft | 277 kts | 93° |
| 2026-04-25 23:42 | 25.20913 | -77.67524 | 12932 ft | 278 kts | 94° |
| 2026-04-25 23:42 | 25.20742 | -77.65405 | 12934 ft | 279 kts | 94° |
| 2026-04-25 23:42 | 25.20570 | -77.63284 | 12933 ft | 278 kts | 94° |
| 2026-04-25 23:43 | 25.20396 | -77.61146 | 12928 ft | 279 kts | 93° |
| 2026-04-25 23:43 | 25.20222 | -77.59006 | 12945 ft | 278 kts | 94° |
| 2026-04-25 23:43 | 25.20049 | -77.56889 | 12940 ft | 279 kts | 94° |
| 2026-04-25 23:43 | 25.19876 | -77.54765 | 12942 ft | 278 kts | 94° |
| 2026-04-25 23:44 | 25.19694 | -77.52535 | 12985 ft | 306 kts | 94° |
| 2026-04-25 23:44 | 25.19492 | -77.50074 | 12984 ft | 335 kts | 94° |
| 2026-04-25 23:44 | 25.19273 | -77.47413 | 12977 ft | 362 kts | 94° |
| 2026-04-25 23:44 | 25.19038 | -77.44554 | 12990 ft | 386 kts | 94° |
| 2026-04-25 23:45 | 25.18789 | -77.41543 | 12970 ft | 397 kts | 94° |
| 2026-04-25 23:45 | 25.18538 | -77.38514 | 12956 ft | 398 kts | 94° |
| 2026-04-25 23:45 | 25.18284 | -77.35454 | 12957 ft | 398 kts | 94° |
| 2026-04-25 23:45 | 25.18031 | -77.32414 | 12952 ft | 398 kts | 95° |
| 2026-04-25 23:46 | 25.17778 | -77.29382 | 12949 ft | 396 kts | 94° |
| 2026-04-25 23:46 | 25.17527 | -77.26370 | 12949 ft | 396 kts | 95° |
| 2026-04-25 23:46 | 25.17275 | -77.23377 | 12242 ft | 388 kts | 95° |
| 2026-04-25 23:46 | 25.17029 | -77.20443 | 11344 ft | 386 kts | 95° |
| 2026-04-25 23:47 | 25.16782 | -77.17510 | 10551 ft | 380 kts | 95° |
| 2026-04-25 23:47 | 25.16540 | -77.14635 | 9780 ft | 373 kts | 95° |
| 2026-04-25 23:47 | 25.16302 | -77.11831 | 8997 ft | 367 kts | 95° |
| 2026-04-25 23:47 | 25.16069 | -77.09081 | 8308 ft | 357 kts | 95° |
| 2026-04-25 23:48 | 25.15844 | -77.06422 | 8302 ft | 329 kts | 95° |
| 2026-04-25 23:48 | 25.15637 | -77.03986 | 7964 ft | 317 kts | 94° |
| 2026-04-25 23:48 | 25.15433 | -77.01592 | 7389 ft | 314 kts | 94° |
| 2026-04-25 23:48 | 25.15230 | -76.99209 | 7008 ft | 314 kts | 95° |
| 2026-04-25 23:49 | 25.15023 | -76.96794 | 6960 ft | 314 kts | 95° |
| 2026-04-25 23:49 | 25.14818 | -76.94417 | 6948 ft | 313 kts | 95° |
| 2026-04-25 23:49 | 25.14614 | -76.92043 | 6947 ft | 312 kts | 95° |
| 2026-04-25 23:49 | 25.14408 | -76.89653 | 6946 ft | 310 kts | 95° |
| 2026-04-25 23:50 | 25.14203 | -76.87271 | 6947 ft | 310 kts | 94° |
| 2026-04-25 23:50 | 25.13999 | -76.84902 | 6949 ft | 311 kts | 94° |
| 2026-04-25 23:50 | 25.13794 | -76.82533 | 6945 ft | 311 kts | 94° |
| 2026-04-25 23:50 | 25.13588 | -76.80165 | 6946 ft | 311 kts | 94° |
| 2026-04-25 23:51 | 25.13382 | -76.77797 | 6948 ft | 311 kts | 94° |
| 2026-04-25 23:51 | 25.13175 | -76.75421 | 6875 ft | 305 kts | 94° |
| 2026-04-25 23:51 | 25.12973 | -76.73101 | 6277 ft | 304 kts | 94° |
| 2026-04-25 23:51 | 25.12768 | -76.70754 | 5698 ft | 301 kts | 94° |
| 2026-04-25 23:52 | 25.12567 | -76.68459 | 5176 ft | 297 kts | 94° |
| 2026-04-25 23:52 | 25.12370 | -76.66213 | 4651 ft | 293 kts | 94° |
| 2026-04-25 23:52 | 25.12175 | -76.63996 | 4130 ft | 289 kts | 94° |
| 2026-04-25 23:52 | 25.11983 | -76.61819 | 3629 ft | 284 kts | 94° |
| 2026-04-25 23:53 | 25.11794 | -76.59679 | 3121 ft | 280 kts | 94° |
| 2026-04-25 23:53 | 25.11607 | -76.57555 | 2717 ft | 271 kts | 94° |
| 2026-04-25 23:53 | 25.11429 | -76.55549 | 2704 ft | 249 kts | 94° |
| 2026-04-25 23:53 | 25.11265 | -76.53701 | 2660 ft | 231 kts | 94° |
| 2026-04-25 23:54 | 25.11117 | -76.52015 | 2594 ft | 216 kts | 93° |
| 2026-04-25 23:54 | 25.10974 | -76.50401 | 2466 ft | 205 kts | 93° |
| 2026-04-25 23:54 | 25.10838 | -76.48865 | 2294 ft | 198 kts | 93° |
| 2026-04-25 23:54 | 25.10704 | -76.47376 | 2110 ft | 191 kts | 93° |
| 2026-04-25 23:55 | 25.10581 | -76.46008 | 2012 ft | 180 kts | 93° |
| 2026-04-25 23:55 | 25.10457 | -76.44624 | 1858 ft | 172 kts | 93° |
| 2026-04-25 23:55 | 25.10341 | -76.43328 | 1668 ft | 167 kts | 92° |
| 2026-04-25 23:55 | 25.10224 | -76.41996 | 1612 ft | 193 kts | 92° |
| 2026-04-25 23:56 | 25.10085 | -76.40437 | 1544 ft | 208 kts | 93° |
| 2026-04-25 23:56 | 25.09940 | -76.38837 | 1512 ft | 208 kts | 93° |
| 2026-04-25 23:56 | 25.09802 | -76.37296 | 1498 ft | 208 kts | 93° |
| 2026-04-25 23:56 | 25.09659 | -76.35709 | 1497 ft | 207 kts | 93° |
| 2026-04-25 23:57 | 25.09518 | -76.34145 | 1500 ft | 209 kts | 94° |
| 2026-04-25 23:57 | 25.09374 | -76.32552 | 1499 ft | 208 kts | 94° |
| 2026-04-25 23:57 | 25.09231 | -76.30973 | 1501 ft | 208 kts | 94° |
| 2026-04-25 23:57 | 25.09226 | -76.29399 | 1485 ft | 206 kts | 70° |
| 2026-04-25 23:58 | 25.09928 | -76.28056 | 1524 ft | 206 kts | 55° |
| 2026-04-25 23:58 | 25.10756 | -76.26750 | 1501 ft | 205 kts | 54° |
| 2026-04-25 23:58 | 25.11567 | -76.25480 | 1497 ft | 204 kts | 55° |
| 2026-04-25 23:58 | 25.12369 | -76.24229 | 1475 ft | 191 kts | 55° |
| 2026-04-25 23:59 | 25.13126 | -76.23113 | 1455 ft | 174 kts | 41° |
| 2026-04-25 23:59 | 25.14183 | -76.22725 | 1504 ft | 157 kts | 354° |
| 2026-04-25 23:59 | 25.15195 | -76.23183 | 1515 ft | 156 kts | 334° |
| 2026-04-25 23:59 | 25.16117 | -76.23772 | 1504 ft | 158 kts | 332° |
| 2026-04-26 00:00 | 25.17037 | -76.24400 | 1502 ft | 161 kts | 330° |
| 2026-04-26 00:00 | 25.17968 | -76.25066 | 1497 ft | 161 kts | 328° |
| 2026-04-26 00:00 | 25.18901 | -76.25806 | 1316 ft | 172 kts | 324° |
| 2026-04-26 00:00 | 25.19853 | -76.26636 | 1145 ft | 169 kts | 323° |
| 2026-04-26 00:01 | 25.20738 | -76.27289 | 1227 ft | 142 kts | 334° |
| 2026-04-26 00:01 | 25.21563 | -76.27856 | 1102 ft | 143 kts | 326° |
| 2026-04-26 00:01 | 25.22314 | -76.28468 | 1098 ft | 153 kts | 326° |
| 2026-04-26 00:01 | 25.23169 | -76.29160 | 899 ft | 147 kts | 327° |
| 2026-04-26 00:02 | 25.23976 | -76.29787 | 699 ft | 141 kts | 328° |
| 2026-04-26 00:02 | 25.24832 | -76.30390 | 681 ft | 151 kts | 331° |
| 2026-04-26 00:02 | 25.25755 | -76.31045 | 595 ft | 158 kts | 327° |
| 2026-04-26 00:02 | 25.26629 | -76.31719 | 324 ft | 147 kts | 328° |
| 2026-04-26 00:03 | 25.27484 | -76.32354 | 129 ft | 148 kts | 328° |
| 2026-04-26 00:03 | 25.28291 | -76.32984 | 44 ft | 129 kts | 324° |
| 2026-04-26 00:03 | 25.28779 | -76.33348 | 36 ft | 45 kts | 324° |
| 2026-04-26 00:03 | 25.28868 | -76.33400 | 34 ft | 4 kts | 136° |
| 2026-04-26 00:04 | 25.28819 | -76.33365 | 35 ft | 13 kts | 146° |
| 2026-04-26 00:04 | 25.28715 | -76.33284 | 38 ft | 22 kts | 147° |
| 2026-04-26 00:04 | 25.28556 | -76.33164 | 42 ft | 32 kts | 142° |
| 2026-04-26 00:04 | 25.28348 | -76.32996 | 45 ft | 41 kts | 146° |
| 2026-04-26 00:05 | 25.28083 | -76.32797 | 41 ft | 44 kts | 145° |
| 2026-04-26 00:05 | 25.27849 | -76.32611 | 36 ft | 27 kts | 143° |
| 2026-04-26 00:05 | 25.27838 | -76.32511 | 38 ft | 10 kts | 53° |
| 2026-04-26 00:05 | 25.27877 | -76.32458 | 41 ft | 7 kts | 52° |
| 2026-04-26 00:06 | 25.27899 | -76.32415 | 42 ft | 3 kts | 115° |
| 2026-04-26 00:06 | 25.27890 | -76.32407 | 42 ft | 0 kts | 146° |